createdAt,value
2017-06-09T00:00:39.427Z,0
2017-06-09T00:01:39.378Z,0
2017-06-09T00:02:38.814Z,0
2017-06-09T00:03:39.087Z,0
2017-06-09T00:04:39.100Z,0
2017-06-09T00:05:39.420Z,0
2017-06-09T00:06:39.113Z,0
2017-06-09T00:07:39.171Z,0
2017-06-09T00:08:39.439Z,0
2017-06-09T00:09:39.135Z,0
2017-06-09T00:10:39.144Z,0
2017-06-09T00:11:39.462Z,0
2017-06-09T00:12:39.477Z,0
2017-06-09T00:13:39.171Z,0
2017-06-09T00:14:39.495Z,0
2017-06-09T00:15:38.930Z,0
2017-06-09T00:16:39.200Z,0
2017-06-09T00:17:39.618Z,0
2017-06-09T00:18:39.528Z,0
2017-06-09T00:19:38.914Z,0
2017-06-09T00:20:39.281Z,0
2017-06-09T00:21:38.986Z,0
2017-06-09T00:22:39.612Z,0
2017-06-09T00:23:39.578Z,0
2017-06-09T00:24:39.381Z,0
2017-06-09T00:25:39.647Z,0
2017-06-09T00:26:39.597Z,0
2017-06-09T00:27:39.347Z,0
2017-06-09T00:28:39.302Z,0
2017-06-09T00:29:39.623Z,0
2017-06-09T00:30:39.628Z,0
2017-06-09T00:31:39.740Z,0
2017-06-09T00:32:39.755Z,0
2017-06-09T00:33:39.344Z,0
2017-06-09T00:34:39.389Z,0
2017-06-09T00:35:39.362Z,0
2017-06-09T00:36:39.374Z,0
2017-06-09T00:37:39.436Z,0
2017-06-09T00:38:39.700Z,0
2017-06-09T00:39:39.757Z,0
2017-06-09T00:40:39.719Z,0
2017-06-09T00:41:39.728Z,0
2017-06-09T00:42:39.475Z,0
2017-06-09T00:43:39.429Z,0
2017-06-09T00:44:39.543Z,0
2017-06-09T00:45:39.500Z,0
2017-06-09T00:46:39.455Z,0
2017-06-09T00:47:39.781Z,0
2017-06-09T00:48:39.792Z,0
2017-06-09T00:49:39.842Z,0
2017-06-09T00:50:39.492Z,0
2017-06-09T00:51:39.811Z,0
2017-06-09T00:52:39.524Z,0
2017-06-09T00:53:39.521Z,0
2017-06-09T00:54:39.847Z,0
2017-06-09T00:55:39.848Z,0
2017-06-09T00:56:39.600Z,0
2017-06-09T00:57:39.939Z,0
2017-06-09T00:58:39.875Z,0
2017-06-09T00:59:39.877Z,0
2017-06-09T01:00:39.892Z,0
2017-06-09T01:01:39.588Z,0
2017-06-09T01:02:40.002Z,0
2017-06-09T01:03:39.970Z,0
2017-06-09T01:04:39.614Z,0
2017-06-09T01:05:39.938Z,0
2017-06-09T01:06:39.998Z,0
2017-06-09T01:07:39.951Z,0
2017-06-09T01:08:39.968Z,0
2017-06-09T01:09:39.973Z,0
2017-06-09T01:10:39.664Z,0
2017-06-09T01:11:39.991Z,0
2017-06-09T01:12:39.994Z,0
2017-06-09T01:13:40.000Z,0
2017-06-09T01:14:40.018Z,0
2017-06-09T01:15:39.088Z,0
2017-06-09T01:16:39.755Z,0
2017-06-09T01:17:39.773Z,0
2017-06-09T01:18:39.735Z,0
2017-06-09T01:19:39.740Z,0
2017-06-09T01:20:40.063Z,0
2017-06-09T01:21:40.067Z,0
2017-06-09T01:22:39.880Z,0
2017-06-09T01:23:40.389Z,0
2017-06-09T01:24:40.132Z,0
2017-06-09T01:25:39.795Z,0
2017-06-09T01:26:39.798Z,0
2017-06-09T01:27:40.126Z,0
2017-06-09T01:28:39.818Z,0
2017-06-09T01:29:40.137Z,0
2017-06-09T01:30:40.201Z,0
2017-06-09T01:31:40.253Z,0
2017-06-09T01:32:39.541Z,0
2017-06-09T01:33:40.175Z,0
2017-06-09T01:34:39.609Z,0
2017-06-09T01:35:40.266Z,0
2017-06-09T01:36:39.892Z,0
2017-06-09T01:37:40.208Z,0
2017-06-09T01:38:39.601Z,0
2017-06-09T01:39:40.233Z,0
2017-06-09T01:40:40.241Z,0
2017-06-09T01:41:40.264Z,0
2017-06-09T01:42:39.968Z,0
2017-06-09T01:43:40.285Z,0
2017-06-09T01:44:40.332Z,0
2017-06-09T01:45:40.329Z,0
2017-06-09T01:46:39.671Z,0
2017-06-09T01:47:39.980Z,0
2017-06-09T01:48:40.010Z,0
2017-06-09T01:49:40.001Z,0
2017-06-09T01:50:40.006Z,0
2017-06-09T01:51:40.331Z,0
2017-06-09T01:52:40.387Z,0
2017-06-09T01:53:40.383Z,0
2017-06-09T01:54:40.088Z,0
2017-06-09T01:55:40.058Z,0
2017-06-09T01:56:40.065Z,0
2017-06-09T01:57:40.380Z,0
2017-06-09T01:58:40.440Z,0
2017-06-09T01:59:39.772Z,0
2017-06-09T02:00:40.405Z,0
2017-06-09T02:01:40.412Z,0
2017-06-09T02:02:40.162Z,0
2017-06-09T02:03:40.180Z,0
2017-06-09T02:04:40.441Z,0
2017-06-09T02:05:40.453Z,0
2017-06-09T02:06:40.456Z,0
2017-06-09T02:07:40.475Z,0
2017-06-09T02:08:40.550Z,0
2017-06-09T02:09:40.227Z,0
2017-06-09T02:10:39.871Z,0
2017-06-09T02:11:40.554Z,0
2017-06-09T02:12:40.515Z,0
2017-06-09T02:13:40.530Z,0
2017-06-09T02:14:40.576Z,0
2017-06-09T02:15:40.314Z,0
2017-06-09T02:16:40.541Z,0
2017-06-09T02:17:40.569Z,0
2017-06-09T02:18:40.568Z,0
2017-06-09T02:19:40.276Z,0
2017-06-09T02:20:40.367Z,0
2017-06-09T02:21:40.324Z,0
2017-06-09T02:22:40.609Z,0
2017-06-09T02:23:40.296Z,0
2017-06-09T02:24:39.985Z,0
2017-06-09T02:25:40.636Z,0
2017-06-09T02:26:40.319Z,0
2017-06-09T02:27:40.374Z,0
2017-06-09T02:28:40.332Z,0
2017-06-09T02:29:40.392Z,0
2017-06-09T02:30:40.661Z,0
2017-06-09T02:31:40.669Z,0
2017-06-09T02:32:40.678Z,0
2017-06-09T02:33:40.379Z,0
2017-06-09T02:34:40.742Z,0
2017-06-09T02:35:40.702Z,0
2017-06-09T02:36:40.405Z,0
2017-06-09T02:37:40.408Z,0
2017-06-09T02:38:40.781Z,0
2017-06-09T02:39:40.122Z,0
2017-06-09T02:40:40.764Z,0
2017-06-09T02:41:40.806Z,0
2017-06-09T02:42:40.766Z,0
2017-06-09T02:43:40.462Z,0
2017-06-09T02:44:40.881Z,0
2017-06-09T02:45:40.481Z,0
2017-06-09T02:46:40.798Z,0
2017-06-09T02:47:40.495Z,0
2017-06-09T02:48:40.865Z,0
2017-06-09T02:49:40.532Z,0
2017-06-09T02:50:40.834Z,0
2017-06-09T02:51:40.222Z,4
2017-06-09T02:52:40.906Z,4
2017-06-09T02:53:40.545Z,0
2017-06-09T02:54:40.554Z,0
2017-06-09T02:55:40.876Z,0
2017-06-09T02:56:40.883Z,4
2017-06-09T02:57:40.891Z,4
2017-06-09T02:58:40.613Z,4
2017-06-09T02:59:40.343Z,4
2017-06-09T03:00:40.308Z,4
2017-06-09T03:01:40.924Z,4
2017-06-09T03:02:40.625Z,4
2017-06-09T03:03:40.009Z,8
2017-06-09T03:04:40.959Z,8
2017-06-09T03:05:41.032Z,8
2017-06-09T03:06:40.706Z,8
2017-06-09T03:07:40.661Z,8
2017-06-09T03:08:41.036Z,12
2017-06-09T03:09:40.999Z,12
2017-06-09T03:10:41.001Z,12
2017-06-09T03:11:41.112Z,12
2017-06-09T03:12:40.718Z,12
2017-06-09T03:13:40.714Z,12
2017-06-09T03:14:41.045Z,16
2017-06-09T03:15:41.046Z,16
2017-06-09T03:16:41.109Z,16
2017-06-09T03:17:41.111Z,20
2017-06-09T03:18:40.762Z,20
2017-06-09T03:19:41.077Z,20
2017-06-09T03:20:40.463Z,20
2017-06-09T03:21:40.527Z,24
2017-06-09T03:22:40.491Z,24
2017-06-09T03:23:40.490Z,24
2017-06-09T03:24:41.120Z,24
2017-06-09T03:25:40.818Z,24
2017-06-09T03:26:41.184Z,24
2017-06-09T03:27:41.146Z,28
2017-06-09T03:28:41.159Z,28
2017-06-09T03:29:40.544Z,28
2017-06-09T03:30:40.910Z,32
2017-06-09T03:31:41.233Z,32
2017-06-09T03:32:40.931Z,32
2017-06-09T03:33:41.210Z,32
2017-06-09T03:34:41.202Z,40
2017-06-09T03:35:41.212Z,40
2017-06-09T03:36:40.910Z,44
2017-06-09T03:37:41.231Z,44
2017-06-09T03:38:41.239Z,44
2017-06-09T03:39:40.624Z,48
2017-06-09T03:40:41.259Z,52
2017-06-09T03:41:41.264Z,56
2017-06-09T03:42:41.271Z,52
2017-06-09T03:43:41.278Z,56
2017-06-09T03:44:41.293Z,56
2017-06-09T03:45:41.298Z,60
2017-06-09T03:46:41.000Z,64
2017-06-09T03:47:40.745Z,64
2017-06-09T03:48:40.700Z,64
2017-06-09T03:49:41.075Z,68
2017-06-09T03:50:41.340Z,68
2017-06-09T03:51:41.399Z,68
2017-06-09T03:52:41.359Z,68
2017-06-09T03:53:41.064Z,72
2017-06-09T03:54:41.427Z,72
2017-06-09T03:55:41.079Z,72
2017-06-09T03:56:41.134Z,72
2017-06-09T03:57:41.399Z,72
2017-06-09T03:58:41.455Z,76
2017-06-09T03:59:40.847Z,76
2017-06-09T04:00:41.430Z,76
2017-06-09T04:01:41.438Z,80
2017-06-09T04:02:41.490Z,80
2017-06-09T04:03:41.507Z,84
2017-06-09T04:04:41.451Z,88
2017-06-09T04:05:41.157Z,92
2017-06-09T04:06:41.165Z,96
2017-06-09T04:07:41.535Z,100
2017-06-09T04:08:41.233Z,100
2017-06-09T04:09:41.553Z,104
2017-06-09T04:10:41.514Z,108
2017-06-09T04:11:41.257Z,112
2017-06-09T04:12:41.218Z,116
2017-06-09T04:13:40.913Z,120
2017-06-09T04:14:41.541Z,132
2017-06-09T04:15:41.557Z,136
2017-06-09T04:16:41.559Z,140
2017-06-09T04:17:41.272Z,144
2017-06-09T04:18:41.578Z,148
2017-06-09T04:19:41.585Z,152
2017-06-09T04:20:41.601Z,156
2017-06-09T04:21:41.658Z,168
2017-06-09T04:22:41.353Z,176
2017-06-09T04:23:41.315Z,180
2017-06-09T04:24:41.369Z,188
2017-06-09T04:25:41.639Z,192
2017-06-09T04:26:41.341Z,196
2017-06-09T04:27:41.658Z,200
2017-06-09T04:28:41.662Z,204
2017-06-09T04:29:41.408Z,216
2017-06-09T04:30:41.718Z,224
2017-06-09T04:31:41.740Z,228
2017-06-09T04:32:41.695Z,232
2017-06-09T04:33:41.710Z,240
2017-06-09T04:34:41.405Z,240
2017-06-09T04:35:41.755Z,240
2017-06-09T04:36:41.780Z,244
2017-06-09T04:37:41.737Z,248
2017-06-09T04:38:41.124Z,252
2017-06-09T04:39:41.501Z,256
2017-06-09T04:40:41.139Z,256
2017-06-09T04:41:41.153Z,248
2017-06-09T04:42:41.468Z,244
2017-06-09T04:43:42.091Z,248
2017-06-09T04:44:41.180Z,252
2017-06-09T04:45:41.807Z,260
2017-06-09T04:46:41.504Z,272
2017-06-09T04:47:41.513Z,288
2017-06-09T04:48:41.554Z,308
2017-06-09T04:49:41.843Z,332
2017-06-09T04:50:41.849Z,364
2017-06-09T04:51:41.547Z,392
2017-06-09T04:52:41.965Z,424
2017-06-09T04:53:41.574Z,468
2017-06-09T04:54:41.936Z,508
2017-06-09T04:55:41.271Z,552
2017-06-09T04:56:41.949Z,588
2017-06-09T04:57:41.673Z,624
2017-06-09T04:58:41.989Z,660
2017-06-09T04:59:41.927Z,720
2017-06-09T05:00:41.627Z,772
2017-06-09T05:01:41.943Z,900
2017-06-09T05:02:41.965Z,1064
2017-06-09T05:03:41.671Z,1092
2017-06-09T05:04:41.671Z,1048
2017-06-09T05:05:42.079Z,936
2017-06-09T05:06:41.675Z,876
2017-06-09T05:07:41.750Z,800
2017-06-09T05:08:42.023Z,780
2017-06-09T05:09:42.032Z,840
2017-06-09T05:10:42.335Z,748
2017-06-09T05:11:41.769Z,616
2017-06-09T05:12:42.114Z,592
2017-06-09T05:13:42.059Z,596
2017-06-09T05:14:42.059Z,580
2017-06-09T05:15:42.082Z,572
2017-06-09T05:16:42.074Z,560
2017-06-09T05:17:41.822Z,576
2017-06-09T05:18:41.798Z,600
2017-06-09T05:19:42.102Z,584
2017-06-09T05:20:42.108Z,552
2017-06-09T05:21:41.863Z,568
2017-06-09T05:22:41.864Z,608
2017-06-09T05:23:42.186Z,568
2017-06-09T05:24:41.830Z,524
2017-06-09T05:25:42.147Z,520
2017-06-09T05:26:41.237Z,524
2017-06-09T05:27:42.168Z,556
2017-06-09T05:28:41.560Z,624
2017-06-09T05:29:41.879Z,652
2017-06-09T05:30:42.192Z,692
2017-06-09T05:31:42.203Z,760
2017-06-09T05:32:42.209Z,892
2017-06-09T05:33:41.910Z,1400
2017-06-09T05:34:42.281Z,1280
2017-06-09T05:35:41.946Z,824
2017-06-09T05:36:42.028Z,848
2017-06-09T05:37:41.960Z,716
2017-06-09T05:38:42.023Z,688
2017-06-09T05:39:41.975Z,588
2017-06-09T05:40:42.335Z,492
2017-06-09T05:41:42.316Z,452
2017-06-09T05:42:42.350Z,424
2017-06-09T05:43:42.039Z,404
2017-06-09T05:44:42.055Z,388
2017-06-09T05:45:42.060Z,380
2017-06-09T05:46:42.335Z,384
2017-06-09T05:47:42.132Z,404
2017-06-09T05:48:42.050Z,444
2017-06-09T05:49:42.364Z,496
2017-06-09T05:50:42.370Z,556
2017-06-09T05:51:42.376Z,648
2017-06-09T05:52:42.075Z,912
2017-06-09T05:53:42.079Z,1628
2017-06-09T05:54:41.807Z,2272
2017-06-09T05:55:42.100Z,2116
2017-06-09T05:56:42.420Z,1896
2017-06-09T05:57:42.431Z,3076
2017-06-09T05:58:42.131Z,6168
2017-06-09T05:59:42.133Z,5668
2017-06-09T06:00:42.147Z,2344
2017-06-09T06:01:42.154Z,9728
2017-06-09T06:02:42.212Z,10944
2017-06-09T06:03:42.171Z,11620
2017-06-09T06:04:42.491Z,12720
2017-06-09T06:05:42.188Z,2680
2017-06-09T06:06:41.908Z,1656
2017-06-09T06:07:42.256Z,1128
2017-06-09T06:08:42.527Z,928
2017-06-09T06:09:42.284Z,900
2017-06-09T06:10:41.933Z,880
2017-06-09T06:11:42.245Z,932
2017-06-09T06:12:42.270Z,1000
2017-06-09T06:13:42.574Z,964
2017-06-09T06:14:42.279Z,1000
2017-06-09T06:15:42.595Z,764
2017-06-09T06:16:42.606Z,660
2017-06-09T06:17:42.660Z,628
2017-06-09T06:18:42.359Z,644
2017-06-09T06:19:42.635Z,620
2017-06-09T06:20:42.651Z,520
2017-06-09T06:21:42.024Z,488
2017-06-09T06:22:42.349Z,476
2017-06-09T06:23:42.671Z,484
2017-06-09T06:24:42.776Z,492
2017-06-09T06:25:42.684Z,508
2017-06-09T06:26:42.691Z,524
2017-06-09T06:27:42.390Z,540
2017-06-09T06:28:42.758Z,576
2017-06-09T06:29:42.719Z,644
2017-06-09T06:30:42.724Z,780
2017-06-09T06:31:42.430Z,976
2017-06-09T06:32:42.436Z,1324
2017-06-09T06:33:42.503Z,1384
2017-06-09T06:34:42.454Z,1776
2017-06-09T06:35:42.821Z,1864
2017-06-09T06:36:42.783Z,2656
2017-06-09T06:37:42.481Z,3212
2017-06-09T06:38:42.846Z,6324
2017-06-09T06:39:42.857Z,7436
2017-06-09T06:40:42.819Z,7616
2017-06-09T06:41:42.827Z,6080
2017-06-09T06:42:42.839Z,6604
2017-06-09T06:43:42.847Z,4716
2017-06-09T06:44:42.237Z,3704
2017-06-09T06:45:42.871Z,2228
2017-06-09T06:46:42.564Z,2460
2017-06-09T06:47:42.673Z,2420
2017-06-09T06:48:42.896Z,2164
2017-06-09T06:49:42.904Z,2116
2017-06-09T06:50:42.612Z,1748
2017-06-09T06:51:42.918Z,1500
2017-06-09T06:52:43.029Z,1300
2017-06-09T06:53:42.632Z,1128
2017-06-09T06:54:42.994Z,1032
2017-06-09T06:55:42.647Z,1020
2017-06-09T06:56:42.343Z,1104
2017-06-09T06:57:42.664Z,1152
2017-06-09T06:58:43.032Z,1228
2017-06-09T06:59:43.003Z,1368
2017-06-09T07:00:42.744Z,1260
2017-06-09T07:01:43.015Z,1244
2017-06-09T07:02:42.396Z,1284
2017-06-09T07:03:42.720Z,1416
2017-06-09T07:04:42.420Z,1576
2017-06-09T07:05:43.098Z,1684
2017-06-09T07:06:43.103Z,1136
2017-06-09T07:07:43.065Z,940
2017-06-09T07:08:42.761Z,860
2017-06-09T07:09:43.087Z,1044
2017-06-09T07:10:42.783Z,1280
2017-06-09T07:11:43.205Z,1596
2017-06-09T07:12:42.800Z,1680
2017-06-09T07:13:42.286Z,1812
2017-06-09T07:14:43.127Z,2360
2017-06-09T07:15:43.198Z,2620
2017-06-09T07:16:42.835Z,2224
2017-06-09T07:17:43.160Z,2536
2017-06-09T07:18:43.217Z,3304
2017-06-09T07:19:43.175Z,3664
2017-06-09T07:20:43.241Z,4260
2017-06-09T07:21:42.927Z,4996
2017-06-09T07:22:42.889Z,4692
2017-06-09T07:23:42.952Z,6476
2017-06-09T07:24:43.219Z,7028
2017-06-09T07:25:42.920Z,7088
2017-06-09T07:26:42.725Z,6536
2017-06-09T07:27:43.301Z,2784
2017-06-09T07:28:43.305Z,2240
2017-06-09T07:29:42.959Z,1552
2017-06-09T07:30:43.276Z,1596
2017-06-09T07:31:43.331Z,1944
2017-06-09T07:32:43.296Z,2260
2017-06-09T07:33:43.042Z,2592
2017-06-09T07:34:42.696Z,2396
2017-06-09T07:35:43.017Z,2016
2017-06-09T07:36:43.019Z,1812
2017-06-09T07:37:43.030Z,1552
2017-06-09T07:38:43.039Z,1332
2017-06-09T07:39:43.100Z,1132
2017-06-09T07:40:43.669Z,992
2017-06-09T07:41:43.062Z,912
2017-06-09T07:42:43.123Z,856
2017-06-09T07:43:43.085Z,824
2017-06-09T07:44:43.399Z,812
2017-06-09T07:45:43.411Z,804
2017-06-09T07:46:43.111Z,800
2017-06-09T07:47:43.431Z,828
2017-06-09T07:48:43.127Z,876
2017-06-09T07:49:43.552Z,888
2017-06-09T07:50:43.145Z,892
2017-06-09T07:51:43.153Z,904
2017-06-09T07:52:43.159Z,920
2017-06-09T07:53:43.483Z,892
2017-06-09T07:54:43.182Z,856
2017-06-09T07:55:43.504Z,840
2017-06-09T07:56:43.202Z,824
2017-06-09T07:57:43.573Z,828
2017-06-09T07:58:43.531Z,900
2017-06-09T07:59:43.224Z,932
2017-06-09T08:00:43.602Z,992
2017-06-09T08:01:43.304Z,1040
2017-06-09T08:02:43.352Z,1068
2017-06-09T08:03:43.316Z,1104
2017-06-09T08:04:43.581Z,1100
2017-06-09T08:05:43.596Z,1060
2017-06-09T08:06:43.603Z,1068
2017-06-09T08:07:43.610Z,1128
2017-06-09T08:08:43.657Z,1264
2017-06-09T08:09:43.625Z,1228
2017-06-09T08:10:43.380Z,1140
2017-06-09T08:11:43.647Z,1240
2017-06-09T08:12:43.654Z,1264
2017-06-09T08:13:43.662Z,1220
2017-06-09T08:14:43.707Z,1244
2017-06-09T08:15:43.058Z,1304
2017-06-09T08:16:43.684Z,1276
2017-06-09T08:17:43.741Z,1292
2017-06-09T08:18:43.387Z,1296
2017-06-09T08:19:43.763Z,1316
2017-06-09T08:20:43.720Z,1284
2017-06-09T08:21:43.777Z,1248
2017-06-09T08:22:43.739Z,1168
2017-06-09T08:23:43.748Z,1056
2017-06-09T08:24:43.809Z,952
2017-06-09T08:25:43.458Z,856
2017-06-09T08:26:43.467Z,808
2017-06-09T08:27:43.779Z,820
2017-06-09T08:28:43.474Z,876
2017-06-09T08:29:43.549Z,940
2017-06-09T08:30:43.807Z,972
2017-06-09T08:31:43.816Z,912
2017-06-09T08:32:43.251Z,776
2017-06-09T08:33:43.880Z,656
2017-06-09T08:34:43.537Z,596
2017-06-09T08:35:43.545Z,556
2017-06-09T08:36:43.250Z,544
2017-06-09T08:37:43.560Z,536
2017-06-09T08:38:43.883Z,520
2017-06-09T08:39:43.580Z,488
2017-06-09T08:40:43.997Z,464
2017-06-09T08:41:43.601Z,500
2017-06-09T08:42:43.954Z,580
2017-06-09T08:43:43.922Z,652
2017-06-09T08:44:43.670Z,696
2017-06-09T08:45:43.365Z,700
2017-06-09T08:46:43.331Z,680
2017-06-09T08:47:44.042Z,636
2017-06-09T08:48:43.338Z,600
2017-06-09T08:49:44.053Z,568
2017-06-09T08:50:43.979Z,540
2017-06-09T08:51:44.038Z,508
2017-06-09T08:52:43.690Z,488
2017-06-09T08:53:43.387Z,480
2017-06-09T08:54:44.017Z,472
2017-06-09T08:55:43.407Z,476
2017-06-09T08:56:44.085Z,468
2017-06-09T08:57:43.732Z,440
2017-06-09T08:58:44.053Z,408
2017-06-09T08:59:44.167Z,380
2017-06-09T09:00:43.848Z,360
2017-06-09T09:01:43.764Z,336
2017-06-09T09:02:43.777Z,324
2017-06-09T09:03:43.784Z,320
2017-06-09T09:04:43.805Z,332
2017-06-09T09:05:43.807Z,340
2017-06-09T09:06:43.862Z,320
2017-06-09T09:07:44.129Z,288
2017-06-09T09:08:43.208Z,272
2017-06-09T09:09:44.193Z,276
2017-06-09T09:10:43.851Z,284
2017-06-09T09:11:43.858Z,308
2017-06-09T09:12:44.174Z,320
2017-06-09T09:13:43.605Z,324
2017-06-09T09:14:43.877Z,328
2017-06-09T09:15:44.196Z,352
2017-06-09T09:16:44.255Z,384
2017-06-09T09:17:43.905Z,412
2017-06-09T09:18:43.916Z,440
2017-06-09T09:19:44.288Z,456
2017-06-09T09:20:44.242Z,460
2017-06-09T09:21:43.936Z,464
2017-06-09T09:22:44.003Z,472
2017-06-09T09:23:43.960Z,476
2017-06-09T09:24:43.965Z,472
2017-06-09T09:25:44.286Z,468
2017-06-09T09:26:43.988Z,500
2017-06-09T09:27:44.308Z,532
2017-06-09T09:28:44.049Z,568
2017-06-09T09:29:44.110Z,612
2017-06-09T09:30:44.382Z,648
2017-06-09T09:31:44.390Z,660
2017-06-09T09:32:44.446Z,644
2017-06-09T09:33:44.503Z,600
2017-06-09T09:34:44.362Z,544
2017-06-09T09:35:44.372Z,488
2017-06-09T09:36:44.069Z,444
2017-06-09T09:37:44.388Z,416
2017-06-09T09:38:44.398Z,392
2017-06-09T09:39:43.959Z,368
2017-06-09T09:40:44.105Z,356
2017-06-09T09:41:44.425Z,332
2017-06-09T09:42:44.131Z,316
2017-06-09T09:43:44.444Z,312
2017-06-09T09:44:44.142Z,296
2017-06-09T09:45:44.475Z,280
2017-06-09T09:46:44.515Z,260
2017-06-09T09:47:44.481Z,248
2017-06-09T09:48:44.486Z,248
2017-06-09T09:49:44.544Z,248
2017-06-09T09:50:44.507Z,252
2017-06-09T09:51:44.501Z,252
2017-06-09T09:52:44.523Z,268
2017-06-09T09:53:44.267Z,284
2017-06-09T09:54:44.539Z,296
2017-06-09T09:55:44.651Z,296
2017-06-09T09:56:44.551Z,296
2017-06-09T09:57:44.616Z,280
2017-06-09T09:58:44.257Z,268
2017-06-09T09:59:44.585Z,280
2017-06-09T10:00:44.281Z,292
2017-06-09T10:01:44.597Z,312
2017-06-09T10:02:44.297Z,332
2017-06-09T10:03:44.666Z,336
2017-06-09T10:04:44.318Z,344
2017-06-09T10:05:44.635Z,336
2017-06-09T10:06:44.641Z,332
2017-06-09T10:07:44.649Z,332
2017-06-09T10:08:44.397Z,336
2017-06-09T10:09:44.675Z,356
2017-06-09T10:10:44.682Z,376
2017-06-09T10:11:44.422Z,412
2017-06-09T10:12:44.384Z,432
2017-06-09T10:13:44.137Z,444
2017-06-09T10:14:44.708Z,440
2017-06-09T10:15:44.459Z,424
2017-06-09T10:16:44.102Z,420
2017-06-09T10:17:44.777Z,396
2017-06-09T10:18:44.743Z,384
2017-06-09T10:19:44.440Z,384
2017-06-09T10:20:44.453Z,380
2017-06-09T10:21:44.154Z,376
2017-06-09T10:22:44.470Z,384
2017-06-09T10:23:44.792Z,368
2017-06-09T10:24:44.486Z,368
2017-06-09T10:25:44.491Z,388
2017-06-09T10:26:44.826Z,408
2017-06-09T10:27:44.826Z,400
2017-06-09T10:28:44.522Z,416
2017-06-09T10:29:44.525Z,420
2017-06-09T10:30:44.541Z,420
2017-06-09T10:31:44.595Z,424
2017-06-09T10:32:44.550Z,436
2017-06-09T10:33:44.928Z,444
2017-06-09T10:34:44.253Z,456
2017-06-09T10:35:44.266Z,464
2017-06-09T10:36:44.326Z,456
2017-06-09T10:37:44.906Z,452
2017-06-09T10:38:44.598Z,452
2017-06-09T10:39:44.711Z,452
2017-06-09T10:40:44.929Z,480
2017-06-09T10:41:44.988Z,496
2017-06-09T10:42:45.051Z,496
2017-06-09T10:43:44.645Z,492
2017-06-09T10:44:44.343Z,508
2017-06-09T10:45:44.976Z,528
2017-06-09T10:46:44.983Z,532
2017-06-09T10:47:44.725Z,520
2017-06-09T10:48:44.375Z,532
2017-06-09T10:49:44.695Z,564
2017-06-09T10:50:45.013Z,580
2017-06-09T10:51:44.447Z,592
2017-06-09T10:52:44.455Z,612
2017-06-09T10:53:44.724Z,624
2017-06-09T10:54:44.783Z,640
2017-06-09T10:55:45.105Z,656
2017-06-09T10:56:45.058Z,676
2017-06-09T10:57:45.122Z,704
2017-06-09T10:58:44.780Z,732
2017-06-09T10:59:44.829Z,756
2017-06-09T11:00:45.146Z,776
2017-06-09T11:01:45.107Z,808
2017-06-09T11:02:44.489Z,828
2017-06-09T11:03:45.119Z,860
2017-06-09T11:04:45.129Z,896
2017-06-09T11:05:45.139Z,948
2017-06-09T11:06:44.834Z,980
2017-06-09T11:07:44.844Z,1008
2017-06-09T11:08:44.849Z,1040
2017-06-09T11:09:45.227Z,1004
2017-06-09T11:10:44.560Z,1024
2017-06-09T11:11:44.259Z,1016
2017-06-09T11:12:44.889Z,880
2017-06-09T11:13:44.585Z,816
2017-06-09T11:14:45.265Z,904
2017-06-09T11:15:44.603Z,1068
2017-06-09T11:16:44.612Z,1064
2017-06-09T11:17:45.345Z,1088
2017-06-09T11:18:44.686Z,1108
2017-06-09T11:19:44.702Z,1100
2017-06-09T11:20:44.959Z,992
2017-06-09T11:21:44.975Z,940
2017-06-09T11:22:44.995Z,876
2017-06-09T11:23:44.989Z,760
2017-06-09T11:24:44.992Z,712
2017-06-09T11:25:45.311Z,724
2017-06-09T11:26:45.010Z,644
2017-06-09T11:27:45.020Z,560
2017-06-09T11:28:45.032Z,540
2017-06-09T11:29:44.773Z,680
2017-06-09T11:30:45.041Z,784
2017-06-09T11:31:45.047Z,844
2017-06-09T11:32:45.422Z,824
2017-06-09T11:33:45.067Z,692
2017-06-09T11:34:45.438Z,604
2017-06-09T11:35:44.825Z,516
2017-06-09T11:36:44.835Z,444
2017-06-09T11:37:45.101Z,424
2017-06-09T11:38:45.112Z,448
2017-06-09T11:39:45.433Z,460
2017-06-09T11:40:45.503Z,400
2017-06-09T11:41:45.468Z,388
2017-06-09T11:42:45.471Z,344
2017-06-09T11:43:45.515Z,364
2017-06-09T11:44:45.490Z,400
2017-06-09T11:45:44.858Z,384
2017-06-09T11:46:45.517Z,412
2017-06-09T11:47:45.504Z,520
2017-06-09T11:48:45.517Z,536
2017-06-09T11:49:45.517Z,548
2017-06-09T11:50:45.577Z,604
2017-06-09T11:51:45.535Z,580
2017-06-09T11:52:45.595Z,432
2017-06-09T11:53:45.556Z,352
2017-06-09T11:54:45.299Z,412
2017-06-09T11:55:45.327Z,560
2017-06-09T11:56:45.577Z,796
2017-06-09T11:57:44.965Z,756
2017-06-09T11:58:45.599Z,640
2017-06-09T11:59:45.304Z,580
2017-06-09T12:00:44.679Z,596
2017-06-09T12:01:45.638Z,880
2017-06-09T12:02:45.319Z,1076
2017-06-09T12:03:45.325Z,1344
2017-06-09T12:04:45.659Z,1616
2017-06-09T12:05:45.658Z,1532
2017-06-09T12:06:45.717Z,1564
2017-06-09T12:07:45.364Z,1604
2017-06-09T12:08:45.375Z,1568
2017-06-09T12:09:45.749Z,1444
2017-06-09T12:10:45.440Z,1472
2017-06-09T12:11:45.726Z,1556
2017-06-09T12:12:45.312Z,1592
2017-06-09T12:13:45.763Z,1620
2017-06-09T12:14:45.439Z,1636
2017-06-09T12:15:45.814Z,1564
2017-06-09T12:16:45.445Z,1536
2017-06-09T12:17:45.781Z,1544
2017-06-09T12:18:45.472Z,1452
2017-06-09T12:19:45.786Z,1332
2017-06-09T12:20:45.584Z,1408
2017-06-09T12:21:45.547Z,1528
2017-06-09T12:22:45.196Z,1568
2017-06-09T12:23:45.875Z,1588
2017-06-09T12:24:45.530Z,1512
2017-06-09T12:25:45.573Z,1708
2017-06-09T12:26:45.843Z,1772
2017-06-09T12:27:45.849Z,1620
2017-06-09T12:28:45.242Z,1644
2017-06-09T12:29:45.870Z,1752
2017-06-09T12:30:45.878Z,1632
2017-06-09T12:31:45.889Z,1560
2017-06-09T12:32:45.601Z,1452
2017-06-09T12:33:45.910Z,1572
2017-06-09T12:34:45.914Z,1528
2017-06-09T12:35:45.925Z,1480
2017-06-09T12:36:45.639Z,1320
2017-06-09T12:37:45.651Z,1216
2017-06-09T12:38:45.955Z,1172
2017-06-09T12:39:45.716Z,1152
2017-06-09T12:40:45.971Z,1144
2017-06-09T12:41:46.044Z,1316
2017-06-09T12:42:45.682Z,1200
2017-06-09T12:43:45.381Z,1160
2017-06-09T12:44:45.704Z,1272
2017-06-09T12:45:46.019Z,1560
2017-06-09T12:46:46.025Z,1300
2017-06-09T12:47:46.051Z,1240
2017-06-09T12:48:46.047Z,1208
2017-06-09T12:49:45.744Z,1332
2017-06-09T12:50:46.069Z,1436
2017-06-09T12:51:45.762Z,1308
2017-06-09T12:52:46.083Z,1312
2017-06-09T12:53:46.148Z,1456
2017-06-09T12:54:46.109Z,1108
2017-06-09T12:55:45.802Z,1248
2017-06-09T12:56:46.117Z,1152
2017-06-09T12:57:45.529Z,1056
2017-06-09T12:58:45.829Z,1000
2017-06-09T12:59:46.146Z,1024
2017-06-09T13:00:45.844Z,1156
2017-06-09T13:01:46.166Z,1412
2017-06-09T13:02:46.173Z,1240
2017-06-09T13:03:45.902Z,1324
2017-06-09T13:04:46.193Z,1124
2017-06-09T13:05:46.252Z,1060
2017-06-09T13:06:45.951Z,1024
2017-06-09T13:07:46.230Z,1000
2017-06-09T13:08:46.232Z,1156
2017-06-09T13:09:46.249Z,1120
2017-06-09T13:10:45.937Z,1040
2017-06-09T13:11:45.950Z,1028
2017-06-09T13:12:46.269Z,1012
2017-06-09T13:13:45.963Z,892
2017-06-09T13:14:45.974Z,888
2017-06-09T13:15:45.985Z,992
2017-06-09T13:16:46.053Z,1204
2017-06-09T13:17:46.314Z,1232
2017-06-09T13:18:46.419Z,996
2017-06-09T13:19:46.328Z,912
2017-06-09T13:20:46.344Z,888
2017-06-09T13:21:46.039Z,824
2017-06-09T13:22:46.362Z,776
2017-06-09T13:23:46.057Z,768
2017-06-09T13:24:46.070Z,844
2017-06-09T13:25:45.457Z,1128
2017-06-09T13:26:46.085Z,1172
2017-06-09T13:27:46.412Z,1344
2017-06-09T13:28:46.465Z,1308
2017-06-09T13:29:46.112Z,1168
2017-06-09T13:30:46.434Z,1056
2017-06-09T13:31:46.446Z,1004
2017-06-09T13:32:45.881Z,952
2017-06-09T13:33:46.204Z,880
2017-06-09T13:34:46.516Z,824
2017-06-09T13:35:46.222Z,676
2017-06-09T13:36:46.489Z,668
2017-06-09T13:37:46.492Z,660
2017-06-09T13:38:46.194Z,632
2017-06-09T13:39:46.204Z,812
2017-06-09T13:40:46.524Z,756
2017-06-09T13:41:46.637Z,920
2017-06-09T13:42:46.540Z,1172
2017-06-09T13:43:46.552Z,1272
2017-06-09T13:44:46.247Z,1064
2017-06-09T13:45:46.572Z,820
2017-06-09T13:46:46.269Z,780
2017-06-09T13:47:46.588Z,748
2017-06-09T13:48:46.283Z,748
2017-06-09T13:49:46.346Z,788
2017-06-09T13:50:46.615Z,864
2017-06-09T13:51:46.317Z,956
2017-06-09T13:52:46.327Z,996
2017-06-09T13:53:46.641Z,1000